createdAt,value
2019-02-11T00:02:46.901Z,73.69
2019-02-11T00:08:05.343Z,73.45
2019-02-11T00:13:23.916Z,73.77
2019-02-11T00:18:42.169Z,71.78
2019-02-11T00:24:00.941Z,72.44
2019-02-11T00:29:19.311Z,70.52
2019-02-11T00:34:38.278Z,67.53
2019-02-11T00:39:57.361Z,71.79
2019-02-11T00:45:16.953Z,70.22
2019-02-11T00:50:36.230Z,68.72
2019-02-11T00:55:56.229Z,68.51
2019-02-11T01:01:14.384Z,68.22
2019-02-11T01:06:33.356Z,67.33
2019-02-11T01:11:51.920Z,66.39
2019-02-11T01:17:10.283Z,66.52
2019-02-11T01:22:30.181Z,64.85
2019-02-11T01:27:48.748Z,66.67
2019-02-11T01:33:06.907Z,62.79
2019-02-11T01:38:25.792Z,65.04
2019-02-11T01:43:44.245Z,65.17
2019-02-11T01:49:02.804Z,61.12
2019-02-11T01:54:21.074Z,64.44
2019-02-11T01:59:40.059Z,63.74
2019-02-11T02:04:58.715Z,64.87
2019-02-11T02:10:17.374Z,64.62
2019-02-11T02:15:36.352Z,63.24
2019-02-11T02:20:54.714Z,59.50
2019-02-11T02:26:13.085Z,61.71
2019-02-11T02:31:32.871Z,61.60
2019-02-11T02:36:51.433Z,61.32
2019-02-11T02:42:10.212Z,62.08
2019-02-11T02:47:29.593Z,61.23
2019-02-11T02:52:48.879Z,59.21
2019-02-11T02:58:08.985Z,60.21
2019-02-11T03:03:27.951Z,60.44
2019-02-11T03:08:46.928Z,60.88
2019-02-11T03:14:06.676Z,61.24
2019-02-11T03:19:26.516Z,59.33
2019-02-11T03:24:46.824Z,60.54
2019-02-11T03:30:06.105Z,61.39
2019-02-11T03:35:26.206Z,61.13
2019-02-11T03:40:44.987Z,60.54
2019-02-11T03:46:03.246Z,63.14
2019-02-11T03:51:21.300Z,62.07
2019-02-11T03:56:39.656Z,61.26
2019-02-11T04:01:58.730Z,60.54
2019-02-11T04:07:16.989Z,61.14
2019-02-11T04:12:35.040Z,61.42
2019-02-11T04:17:54.633Z,61.14
2019-02-11T04:23:13.917Z,61.09
2019-02-11T04:28:32.463Z,60.13
2019-02-11T04:33:51.051Z,60.51
2019-02-11T04:39:10.030Z,61.56
2019-02-11T04:44:34.118Z,61.10
2019-02-11T04:49:47.468Z,61.72
2019-02-11T04:55:06.134Z,62.30
2019-02-11T05:00:25.213Z,60.87
2019-02-11T05:05:45.116Z,60.22
2019-02-11T05:11:04.288Z,61.79
2019-02-11T05:16:23.066Z,62.16
2019-02-11T05:21:41.315Z,61.45
2019-02-11T05:27:00.596Z,61.02
2019-02-11T05:32:20.300Z,60.69
2019-02-11T05:37:39.264Z,61.90
2019-02-11T05:42:57.936Z,59.78
2019-02-11T05:48:20.510Z,60.15
2019-02-11T05:53:38.853Z,61.16
2019-02-11T05:58:56.913Z,60.00
2019-02-11T06:04:16.911Z,60.04
2019-02-11T06:09:35.996Z,59.42
2019-02-11T06:15:03.745Z,59.11
2019-02-11T06:20:13.631Z,60.56
2019-02-11T06:25:32.915Z,60.55
2019-02-11T06:30:52.204Z,59.88
2019-02-11T06:36:12.736Z,60.61
2019-02-11T06:41:29.497Z,60.68
2019-02-11T06:46:48.306Z,60.38
2019-02-11T06:52:06.880Z,60.47
2019-02-11T06:57:25.346Z,59.43
2019-02-11T07:02:44.313Z,59.84
2019-02-11T07:08:02.777Z,61.52
2019-02-11T07:13:21.851Z,60.54
2019-02-11T07:18:40.939Z,61.39
2019-02-11T07:23:59.295Z,61.88
2019-02-11T07:29:18.471Z,61.90
2019-02-11T07:34:37.240Z,61.71
2019-02-11T07:39:56.115Z,63.02
2019-02-11T07:45:30.293Z,62.94
2019-02-11T07:50:48.815Z,63.93
2019-02-11T07:56:08.002Z,63.91
2019-02-11T08:01:27.173Z,64.25
2019-02-11T08:06:45.945Z,64.97
2019-02-11T08:12:04.828Z,64.98
2019-02-11T08:17:24.102Z,64.78
2019-02-11T08:22:42.976Z,65.12
2019-02-11T08:28:03.996Z,65.70
2019-02-11T08:33:23.389Z,66.39
2019-02-11T08:38:42.867Z,66.55
2019-02-11T08:44:01.859Z,67.14
2019-02-11T08:49:21.642Z,67.67
2019-02-11T08:54:41.235Z,68.77
2019-02-11T09:00:00.408Z,69.39
2019-02-11T09:05:20.006Z,70.24
2019-02-11T09:10:40.409Z,71.54
2019-02-11T09:15:58.667Z,72.11
2019-02-11T09:21:17.043Z,72.90
2019-02-11T09:26:37.476Z,73.14
2019-02-11T09:31:59.894Z,74.54
2019-02-11T09:37:19.077Z,75.68
2019-02-11T09:42:37.952Z,75.44
2019-02-11T09:47:56.926Z,77.03
2019-02-11T09:53:16.466Z,77.01
2019-02-11T09:58:34.974Z,77.31
2019-02-11T10:03:53.952Z,78.20
2019-02-11T10:09:12.731Z,77.16
2019-02-11T10:14:31.699Z,76.66
2019-02-11T10:19:50.778Z,76.15
2019-02-11T10:25:13.849Z,75.58
2019-02-11T10:30:33.449Z,74.98
2019-02-11T10:35:52.932Z,75.67
2019-02-11T10:41:12.624Z,75.58
2019-02-11T10:46:32.415Z,76.02
2019-02-11T10:51:51.391Z,75.32
2019-02-11T10:57:10.989Z,75.41
2019-02-11T11:02:30.068Z,75.48
2019-02-11T11:07:48.424Z,75.63
2019-02-11T11:13:06.882Z,75.90
2019-02-11T11:18:25.962Z,76.04
2019-02-11T11:23:46.674Z,75.76
2019-02-11T11:29:06.028Z,75.33
2019-02-11T11:34:23.911Z,75.04
2019-02-11T11:39:42.990Z,74.60
2019-02-11T11:45:01.354Z,74.10
2019-02-11T11:50:20.944Z,72.52
2019-02-11T11:55:39.922Z,72.30
2019-02-11T12:00:59.834Z,71.47
2019-02-11T12:06:20.743Z,71.14
2019-02-11T12:11:39.195Z,70.71
2019-02-11T12:17:02.801Z,70.42
2019-02-11T12:22:16.843Z,70.47
2019-02-11T12:27:35.926Z,69.80
2019-02-11T12:32:56.212Z,70.85
2019-02-11T12:38:14.391Z,70.56
2019-02-11T12:43:36.750Z,70.61
2019-02-11T12:48:55.213Z,69.91
2019-02-11T12:54:13.976Z,70.02
2019-02-11T12:59:33.157Z,69.42
2019-02-11T13:04:53.873Z,70.30
2019-02-11T13:10:14.838Z,69.65
2019-02-11T13:15:58.982Z,68.53
2019-02-11T13:20:56.641Z,68.72
2019-02-11T13:26:17.047Z,68.75
2019-02-11T13:31:36.740Z,69.45
2019-02-11T13:36:55.926Z,69.17
2019-02-11T13:42:15.831Z,68.89
2019-02-11T13:47:51.852Z,69.42
2019-02-11T13:52:54.374Z,69.84
2019-02-11T13:58:14.178Z,69.43
2019-02-11T14:03:34.690Z,69.46
2019-02-11T14:08:55.458Z,69.75
2019-02-11T14:14:14.803Z,69.52
2019-02-11T14:19:33.782Z,70.02
2019-02-11T14:24:53.250Z,70.66
2019-02-11T14:30:12.237Z,70.46
2019-02-11T14:35:30.808Z,71.10
2019-02-11T14:40:49.574Z,71.12
2019-02-11T14:46:07.830Z,71.33
2019-02-11T14:51:29.670Z,72.36
2019-02-11T14:56:48.335Z,73.05
2019-02-11T15:02:07.460Z,72.86
2019-02-11T15:07:27.466Z,74.45
2019-02-11T15:12:46.701Z,74.73
2019-02-11T15:18:05.670Z,75.07
2019-02-11T15:23:25.074Z,75.48
2019-02-11T15:28:44.945Z,75.91
2019-02-11T15:34:05.060Z,75.92
2019-02-11T15:39:23.635Z,76.23
2019-02-11T15:44:42.288Z,75.76
2019-02-11T15:50:00.758Z,75.52
2019-02-11T15:55:19.631Z,74.86
2019-02-11T16:00:39.314Z,75.54
2019-02-11T16:06:00.017Z,74.58
2019-02-11T16:11:17.275Z,74.58
2019-02-11T16:16:36.957Z,74.30
2019-02-11T16:21:55.933Z,74.77
2019-02-11T16:27:14.607Z,74.23
2019-02-11T16:32:33.174Z,73.99
2019-02-11T16:37:52.756Z,75.04
2019-02-11T16:43:11.939Z,74.03
2019-02-11T16:48:31.940Z,74.44
2019-02-11T16:53:51.243Z,74.65
2019-02-11T16:59:10.913Z,74.64
2019-02-11T17:04:29.884Z,75.24
2019-02-11T17:09:50.194Z,75.73
2019-02-11T17:15:12.860Z,76.13
2019-02-11T17:20:32.502Z,77.01
2019-02-11T17:25:52.248Z,78.35
2019-02-11T17:31:10.393Z,78.91
2019-02-11T17:36:29.177Z,79.06
2019-02-11T17:41:49.370Z,80.62
2019-02-11T17:47:09.368Z,82.10
2019-02-11T17:52:29.454Z,81.71
2019-02-11T17:57:48.753Z,82.33
2019-02-11T18:03:08.449Z,82.40
2019-02-11T18:08:27.433Z,82.75
2019-02-11T18:13:47.937Z,82.51
2019-02-11T18:19:06.922Z,82.44
2019-02-11T18:24:25.895Z,82.61
2019-02-11T18:29:45.888Z,82.47
2019-02-11T18:35:06.403Z,81.96
2019-02-11T18:40:25.071Z,81.79
2019-02-11T18:45:44.768Z,81.75
2019-02-11T18:51:04.866Z,81.30
2019-02-11T18:56:24.361Z,81.45
2019-02-11T19:01:43.229Z,80.12
2019-02-11T19:07:01.378Z,80.68
2019-02-11T19:12:20.874Z,81.47
2019-02-11T19:17:39.945Z,80.99
2019-02-11T19:23:01.724Z,80.40
2019-02-11T19:28:18.204Z,79.69
2019-02-11T19:33:37.457Z,80.49
2019-02-11T19:38:58.304Z,80.90
2019-02-11T19:44:17.458Z,80.29
2019-02-11T19:49:39.329Z,80.18
2019-02-11T19:54:59.424Z,80.09
2019-02-11T20:00:22.404Z,79.58
2019-02-11T20:05:41.273Z,80.08
2019-02-11T20:11:00.973Z,80.00
2019-02-11T20:16:20.356Z,79.45
2019-02-11T20:21:39.335Z,79.34
2019-02-11T20:26:59.480Z,80.03
2019-02-11T20:32:18.300Z,79.53
2019-02-11T20:37:37.071Z,79.54
2019-02-11T20:42:55.944Z,79.99
2019-02-11T20:48:14.407Z,80.02
2019-02-11T20:53:32.973Z,80.66
2019-02-11T20:58:56.474Z,81.09
2019-02-11T21:04:15.944Z,80.97
2019-02-11T21:09:35.339Z,81.27
2019-02-11T21:14:56.461Z,81.40
2019-02-11T21:20:36.008Z,82.08
2019-02-11T21:25:57.155Z,82.07
2019-02-11T21:31:15.904Z,81.71
2019-02-11T21:36:36.934Z,82.22
2019-02-11T21:42:00.473Z,82.58
2019-02-11T21:47:20.464Z,82.98
2019-02-11T21:52:42.460Z,83.37
2019-02-11T21:58:03.189Z,83.98
2019-02-11T22:03:22.253Z,84.04
2019-02-11T22:08:43.377Z,82.80
2019-02-11T22:14:02.156Z,83.21
2019-02-11T22:19:21.844Z,82.55
2019-02-11T22:24:40.002Z,82.32
2019-02-11T22:29:59.387Z,82.14
2019-02-11T22:35:18.770Z,82.23
2019-02-11T22:40:38.054Z,82.19
2019-02-11T22:45:56.931Z,82.23
2019-02-11T22:51:15.911Z,82.54
2019-02-11T22:56:34.671Z,82.73
2019-02-11T23:01:53.954Z,82.78
2019-02-11T23:07:13.133Z,82.58
2019-02-11T23:12:31.906Z,82.34
2019-02-11T23:17:51.392Z,82.26
2019-02-11T23:23:09.868Z,81.72
2019-02-11T23:28:29.241Z,81.43
2019-02-11T23:33:47.500Z,81.78
2019-02-11T23:39:05.868Z,81.64
2019-02-11T23:44:24.834Z,81.37
2019-02-11T23:49:43.913Z,80.87
2019-02-11T23:55:02.378Z,80.84
